Time;durP1;ratioP1;P1;durP2;ratioP2;P2;SDS_P1;SDS_P2;PMS_P1;PMS_P2;Temp;Humidity;BMP_temperature;BMP_pressure;BME280_temperature;BME280_humidity;BME280_pressure;Samples;Min_cycle;Max_cycle;Signal;HPM_P1;HPM_P2
2022/07/13 00:00:36;;;;;;;5.20;2.47;;;24.60;99.90;;;;;;5014803;28;21015;-80
2022/07/13 00:03:01;;;;;;;5.10;2.77;;;24.50;99.90;;;;;;5014570;28;20680;-81
2022/07/13 00:05:27;;;;;;;3.33;1.70;;;24.50;99.90;;;;;;5011339;28;20190;-81
2022/07/13 00:07:53;;;;;;;5.40;2.07;;;24.50;99.90;;;;;;5013671;28;20197;-82
2022/07/13 00:10:18;;;;;;;10.20;2.50;;;24.50;99.90;;;;;;5014062;28;20469;-81
2022/07/13 00:12:44;;;;;;;13.07;2.30;;;24.50;99.90;;;;;;5013707;28;20194;-81
2022/07/13 00:15:10;;;;;;;6.33;2.27;;;24.40;99.90;;;;;;5007953;28;20220;-81
2022/07/13 00:17:36;;;;;;;2.27;1.80;;;24.40;99.90;;;;;;5012893;28;20252;-81
2022/07/13 00:20:01;;;;;;;4.07;2.10;;;24.40;99.90;;;;;;5011033;28;20502;-81
2022/07/13 00:22:27;;;;;;;5.17;1.87;;;24.40;99.90;;;;;;5011297;28;20178;-81
2022/07/13 00:24:52;;;;;;;2.40;2.20;;;24.30;99.90;;;;;;5014689;28;20223;-81
2022/07/13 00:27:18;;;;;;;3.10;2.30;;;24.30;99.90;;;;;;5011954;28;20216;-81
2022/07/13 00:29:43;;;;;;;3.57;2.67;;;24.30;99.90;;;;;;5012530;28;20224;-81
2022/07/13 00:32:09;;;;;;;5.53;2.03;;;24.30;99.90;;;;;;5011652;28;20185;-81
2022/07/13 00:34:34;;;;;;;4.17;1.80;;;24.30;99.90;;;;;;5015113;28;20910;-81
2022/07/13 00:37:00;;;;;;;4.33;2.37;;;24.30;99.90;;;;;;5013837;28;20190;-81
2022/07/13 00:39:25;;;;;;;4.27;2.57;;;24.30;99.90;;;;;;5013586;28;20210;-81
2022/07/13 00:41:51;;;;;;;4.03;2.70;;;24.20;99.90;;;;;;5014164;28;20214;-81
2022/07/13 00:44:17;;;;;;;3.40;1.97;;;24.20;99.90;;;;;;5012497;28;20196;-81
2022/07/13 00:46:54;;;;;;;5.33;2.47;;;24.10;99.90;;;;;;5013359;28;20185;-81
2022/07/13 00:49:21;;;;;;;6.33;2.50;;;24.00;99.90;;;;;;5012738;28;20206;-81
2022/07/13 00:51:47;;;;;;;5.40;2.23;;;23.90;99.90;;;;;;5012104;28;20945;-81
2022/07/13 00:54:13;;;;;;;5.83;2.30;;;23.90;99.90;;;;;;5010434;28;20467;-81
2022/07/13 00:56:40;;;;;;;4.30;2.20;;;23.90;99.90;;;;;;5009999;28;20182;-81
2022/07/13 00:59:06;;;;;;;4.63;1.83;;;23.80;99.90;;;;;;5012103;28;20436;-81
2022/07/13 01:01:32;;;;;;;5.33;2.63;;;23.70;99.90;;;;;;5013316;28;20447;-81
2022/07/13 01:03:59;;;;;;;5.93;2.90;;;23.70;99.90;;;;;;5011584;28;20440;-81
2022/07/13 01:06:24;;;;;;;5.13;2.60;;;23.70;99.90;;;;;;5013172;28;20508;-81
2022/07/13 01:08:51;;;;;;;8.30;3.03;;;23.60;99.90;;;;;;5007156;28;20949;-80
2022/07/13 01:11:17;;;;;;;5.00;2.43;;;23.60;99.90;;;;;;5006776;28;20222;-81
2022/07/13 01:13:44;;;;;;;9.90;2.43;;;23.60;99.90;;;;;;5012966;28;20431;-81
2022/07/13 01:16:10;;;;;;;4.70;2.53;;;23.50;99.90;;;;;;5012410;28;20276;-81
2022/07/13 01:18:37;;;;;;;3.70;2.17;;;23.50;99.90;;;;;;5012052;28;20619;-81
2022/07/13 01:21:07;;;;;;;2.80;2.50;;;23.50;99.90;;;;;;5008722;28;20379;-81
2022/07/13 01:23:34;;;;;;;2.87;2.03;;;23.50;99.90;;;;;;5013391;28;20854;-81
2022/07/13 01:26:01;;;;;;;3.13;2.20;;;23.40;99.90;;;;;;5013126;28;20466;-81
2022/07/13 01:28:26;;;;;;;5.87;2.27;;;23.50;99.90;;;;;;5012631;28;20443;-81
2022/07/13 01:30:52;;;;;;;3.70;2.00;;;23.40;99.90;;;;;;5009117;28;20831;-81
2022/07/13 01:33:17;;;;;;;3.30;1.97;;;23.40;99.90;;;;;;5010868;28;20185;-81
2022/07/13 01:35:43;;;;;;;2.50;2.10;;;23.40;99.90;;;;;;5010950;28;20287;-81
2022/07/13 01:38:09;;;;;;;3.07;1.70;;;23.40;99.90;;;;;;5008316;28;20177;-81
2022/07/13 01:40:35;;;;;;;5.97;2.33;;;23.30;99.90;;;;;;5009624;28;20220;-81
2022/07/13 01:43:00;;;;;;;5.00;3.17;;;23.30;99.90;;;;;;5011999;28;20517;-81
2022/07/13 01:45:26;;;;;;;3.87;3.10;;;23.30;99.90;;;;;;5012911;28;20257;-81
2022/07/13 01:47:54;;;;;;;3.43;2.03;;;23.30;99.90;;;;;;5011334;28;20211;-81
2022/07/13 01:50:21;;;;;;;7.03;2.37;;;23.30;99.90;;;;;;5012369;28;20211;-81
2022/07/13 01:52:47;;;;;;;4.23;2.00;;;23.20;99.90;;;;;;5013367;28;20451;-81
2022/07/13 01:55:13;;;;;;;3.37;2.07;;;23.20;99.90;;;;;;5009489;28;20470;-81
2022/07/13 01:57:40;;;;;;;3.00;2.23;;;23.20;99.90;;;;;;5008110;28;20448;-81
2022/07/13 02:00:20;;;;;;;6.27;2.37;;;23.20;99.90;;;;;;5012697;28;20471;-81
2022/07/13 02:02:46;;;;;;;4.33;1.97;;;23.20;99.90;;;;;;5009331;28;20440;-81
2022/07/13 02:05:13;;;;;;;2.80;2.40;;;23.20;99.90;;;;;;5012340;28;20461;-81
2022/07/13 02:07:39;;;;;;;3.20;1.80;;;23.20;99.90;;;;;;5013236;28;20530;-81
2022/07/13 02:10:07;;;;;;;6.33;2.77;;;23.20;99.90;;;;;;5012642;28;20477;-80
2022/07/13 02:12:33;;;;;;;7.33;2.70;;;23.20;99.90;;;;;;5029094;28;20445;-81
2022/07/13 02:14:59;;;;;;;3.57;2.27;;;23.20;99.90;;;;;;5014051;28;20472;-81
2022/07/13 02:17:24;;;;;;;3.53;2.20;;;23.10;99.90;;;;;;5012013;28;20673;-81
2022/07/13 02:19:50;;;;;;;4.83;2.70;;;23.10;99.90;;;;;;5013304;28;20234;-81
2022/07/13 02:22:15;;;;;;;8.23;2.33;;;23.10;99.90;;;;;;5011253;28;20198;-82
2022/07/13 02:24:41;;;;;;;7.63;3.20;;;23.10;99.90;;;;;;5010351;28;20241;-81
2022/07/13 02:27:07;;;;;;;5.27;2.60;;;23.10;99.90;;;;;;5012599;28;20270;-81
2022/07/13 02:29:32;;;;;;;4.90;3.13;;;23.00;99.90;;;;;;5012593;28;20207;-81
2022/07/13 02:31:58;;;;;;;5.73;2.60;;;23.00;99.90;;;;;;5009732;28;20185;-81
2022/07/13 02:34:27;;;;;;;10.47;3.17;;;22.90;99.90;;;;;;5010228;28;20211;-81
2022/07/13 02:36:53;;;;;;;4.10;2.93;;;22.90;99.90;;;;;;5013053;28;20200;-81
2022/07/13 02:39:19;;;;;;;6.03;2.57;;;22.80;99.90;;;;;;5008136;28;20442;-81
2022/07/13 02:41:45;;;;;;;6.57;2.67;;;22.80;99.90;;;;;;5011755;28;20437;-81
2022/07/13 02:44:10;;;;;;;11.43;3.50;;;22.70;99.90;;;;;;5010856;28;20209;-81
2022/07/13 02:46:36;;;;;;;4.43;2.90;;;22.70;99.90;;;;;;5011583;28;20321;-81
2022/07/13 02:49:01;;;;;;;8.60;3.00;;;22.70;99.90;;;;;;5008822;28;20199;-81
2022/07/13 02:51:27;;;;;;;10.63;3.17;;;22.70;99.90;;;;;;5014281;28;20209;-81
2022/07/13 02:53:52;;;;;;;10.83;2.73;;;22.60;99.90;;;;;;5012890;28;20187;-81
2022/07/13 02:56:18;;;;;;;6.40;2.67;;;22.60;99.90;;;;;;5006550;28;20283;-81
2022/07/13 02:58:43;;;;;;;8.83;3.60;;;22.60;99.90;;;;;;5010698;28;20192;-81
2022/07/13 03:01:09;;;;;;;6.07;2.63;;;22.60;99.90;;;;;;5010995;28;20218;-81
2022/07/13 03:03:34;;;;;;;6.40;2.60;;;22.60;99.90;;;;;;5010013;28;20197;-82
2022/07/13 03:06:01;;;;;;;4.47;2.43;;;22.50;99.90;;;;;;5009925;28;20198;-81
2022/07/13 03:08:26;;;;;;;7.03;2.90;;;22.60;99.90;;;;;;5026551;28;20195;-81
2022/07/13 03:10:52;;;;;;;10.73;3.30;;;22.50;99.90;;;;;;5011233;28;20477;-81
2022/07/13 03:13:18;;;;;;;7.83;2.40;;;22.60;99.90;;;;;;5011495;28;20187;-81
2022/07/13 03:15:43;;;;;;;9.43;2.60;;;22.60;99.90;;;;;;5013105;28;20211;-82
2022/07/13 03:18:09;;;;;;;6.33;2.70;;;22.60;99.90;;;;;;5012010;28;20430;-81
2022/07/13 03:20:34;;;;;;;12.73;3.37;;;22.60;99.90;;;;;;5015877;28;20209;-81
2022/07/13 03:23:00;;;;;;;3.53;2.30;;;22.60;99.90;;;;;;5014737;28;20179;-81
2022/07/13 03:25:26;;;;;;;4.60;2.30;;;22.60;99.90;;;;;;5014078;28;20730;-81
2022/07/13 03:27:52;;;;;;;5.20;2.30;;;22.60;99.90;;;;;;5011759;28;20438;-81
2022/07/13 03:30:17;;;;;;;9.43;2.80;;;22.60;99.90;;;;;;5012077;28;20233;-81
2022/07/13 03:32:43;;;;;;;6.67;2.40;;;22.50;99.90;;;;;;5015976;28;20254;-81
2022/07/13 03:35:09;;;;;;;10.03;3.27;;;22.50;99.90;;;;;;5015286;28;20275;-81
2022/07/13 03:37:35;;;;;;;4.90;2.20;;;22.50;99.90;;;;;;5010260;28;20187;-81
2022/07/13 03:40:00;;;;;;;4.90;2.63;;;22.50;99.90;;;;;;5014164;28;20465;-81
2022/07/13 03:42:26;;;;;;;6.40;2.50;;;22.50;99.90;;;;;;5011696;28;20286;-81
2022/07/13 03:44:51;;;;;;;7.70;2.73;;;22.50;99.90;;;;;;5014685;28;20284;-81
2022/07/13 03:47:17;;;;;;;6.43;3.00;;;22.50;99.90;;;;;;5013202;28;20191;-81
2022/07/13 03:49:42;;;;;;;2.80;2.10;;;22.50;99.90;;;;;;5014693;28;20231;-81
2022/07/13 03:52:08;;;;;;;11.73;2.60;;;22.50;99.90;;;;;;5014216;28;20212;-81
2022/07/13 03:54:33;;;;;;;5.13;2.50;;;22.50;99.90;;;;;;5015596;28;20211;-81
2022/07/13 03:56:59;;;;;;;6.67;2.73;;;22.50;99.90;;;;;;5015377;28;20190;-81
2022/07/13 03:59:25;;;;;;;8.37;3.43;;;22.50;99.90;;;;;;5011944;28;20249;-81
2022/07/13 04:01:51;;;;;;;4.67;2.60;;;22.50;99.90;;;;;;5014724;28;20793;-80
2022/07/13 04:04:16;;;;;;;2.73;2.13;;;22.50;99.90;;;;;;5012811;28;20647;-81
2022/07/13 04:06:42;;;;;;;5.97;2.20;;;22.50;99.90;;;;;;5014466;28;20655;-80
2022/07/13 04:09:08;;;;;;;7.10;2.33;;;22.50;99.90;;;;;;5009104;28;20191;-81
2022/07/13 04:11:33;;;;;;;5.00;2.20;;;22.50;99.90;;;;;;5013516;28;20225;-81
2022/07/13 04:13:59;;;;;;;4.83;2.60;;;22.60;99.90;;;;;;5010556;28;20183;-81
2022/07/13 04:16:24;;;;;;;9.63;3.33;;;22.60;99.90;;;;;;5012528;28;20228;-81
2022/07/13 04:18:50;;;;;;;4.53;1.90;;;22.60;99.90;;;;;;5014130;28;20194;-81
2022/07/13 04:21:15;;;;;;;3.10;2.30;;;22.60;99.90;;;;;;5011603;28;20198;-81
2022/07/13 04:23:41;;;;;;;9.60;2.80;;;22.60;99.90;;;;;;5015183;28;20179;-81
2022/07/13 04:26:07;;;;;;;3.90;2.77;;;22.60;99.90;;;;;;5012887;28;20627;-81
2022/07/13 04:28:33;;;;;;;5.23;2.37;;;22.60;99.90;;;;;;5025605;28;20195;-81
2022/07/13 04:30:59;;;;;;;4.67;2.20;;;22.60;99.90;;;;;;5013883;28;20459;-80
2022/07/13 04:33:24;;;;;;;4.40;1.90;;;22.60;99.90;;;;;;5012409;28;20187;-81
2022/07/13 04:35:50;;;;;;;6.50;2.67;;;22.70;99.90;;;;;;5013867;28;20467;-81
2022/07/13 04:38:16;;;;;;;6.87;2.40;;;22.70;99.90;;;;;;5013704;28;20211;-81
2022/07/13 04:40:41;;;;;;;5.07;2.70;;;22.80;99.90;;;;;;5011820;28;20212;-81
2022/07/13 04:43:07;;;;;;;5.33;2.70;;;22.80;99.90;;;;;;5015862;28;20187;-81
2022/07/13 04:45:33;;;;;;;5.10;2.70;;;22.80;99.90;;;;;;5029968;28;20247;-81
2022/07/13 04:47:59;;;;;;;5.80;2.57;;;22.80;99.90;;;;;;5015819;28;20321;-81
2022/07/13 04:50:24;;;;;;;2.57;2.10;;;22.90;99.90;;;;;;5012309;28;20230;-81
2022/07/13 04:52:50;;;;;;;4.53;2.60;;;22.90;99.90;;;;;;5016627;28;20446;-81
2022/07/13 04:55:16;;;;;;;5.43;2.00;;;22.90;99.90;;;;;;5015944;28;20455;-81
2022/07/13 04:57:42;;;;;;;4.83;2.47;;;23.00;99.90;;;;;;5014443;28;20187;-81
2022/07/13 05:00:09;;;;;;;4.43;2.13;;;23.00;99.90;;;;;;5014480;28;20824;-81
2022/07/13 05:02:35;;;;;;;4.03;1.87;;;23.10;99.90;;;;;;5013736;28;20691;-81
2022/07/13 05:05:00;;;;;;;6.10;2.27;;;23.10;99.90;;;;;;5007643;28;20514;-81
2022/07/13 05:07:26;;;;;;;8.23;2.37;;;23.10;99.90;;;;;;5013257;28;20440;-81
2022/07/13 05:09:51;;;;;;;4.93;2.67;;;23.20;99.90;;;;;;5007065;28;20307;-80
2022/07/13 05:12:17;;;;;;;8.17;2.37;;;23.20;99.90;;;;;;5012142;28;20617;-81
2022/07/13 05:14:42;;;;;;;4.47;2.10;;;23.20;99.90;;;;;;5009889;28;20225;-80
2022/07/13 05:17:08;;;;;;;4.33;2.27;;;23.30;99.90;;;;;;5013118;28;20185;-81
2022/07/13 05:19:34;;;;;;;4.00;2.10;;;23.30;99.90;;;;;;5028890;28;20252;-81
2022/07/13 05:21:59;;;;;;;2.40;2.00;;;23.40;99.90;;;;;;5009942;28;20177;-81
2022/07/13 05:24:25;;;;;;;3.13;2.17;;;23.40;99.90;;;;;;5010252;28;20688;-81
2022/07/13 05:26:50;;;;;;;6.17;2.17;;;23.40;99.90;;;;;;5008651;28;20270;-81
2022/07/13 05:29:16;;;;;;;9.60;3.03;;;23.40;99.90;;;;;;5011265;28;20626;-81
2022/07/13 05:31:42;;;;;;;2.93;2.07;;;23.50;99.90;;;;;;5011385;28;20553;-81
2022/07/13 05:34:07;;;;;;;7.33;2.30;;;23.60;99.90;;;;;;5006846;28;21114;-81
2022/07/13 05:36:33;;;;;;;12.27;2.63;;;23.70;99.90;;;;;;5012948;28;20452;-81
2022/07/13 05:38:59;;;;;;;2.70;2.07;;;23.80;99.90;;;;;;5010802;28;20430;-81
2022/07/13 05:41:24;;;;;;;2.93;2.20;;;23.90;99.90;;;;;;5010952;28;20453;-81
2022/07/13 05:43:50;;;;;;;4.90;2.00;;;24.10;99.90;;;;;;5012194;28;20213;-81
2022/07/13 05:46:16;;;;;;;4.60;2.27;;;24.40;99.90;;;;;;5007343;28;20184;-81
2022/07/13 05:48:41;;;;;;;4.57;2.60;;;24.60;99.90;;;;;;5012534;28;20193;-81
2022/07/13 05:51:07;;;;;;;7.70;2.60;;;25.00;99.90;;;;;;5011860;28;20628;-81
2022/07/13 05:53:32;;;;;;;3.60;2.37;;;25.40;99.90;;;;;;5011649;28;20193;-81
2022/07/13 05:55:58;;;;;;;3.43;2.37;;;25.90;99.90;;;;;;5008934;28;20309;-81
2022/07/13 05:58:23;;;;;;;6.13;2.30;;;26.40;99.90;;;;;;5012432;28;20225;-81
2022/07/13 06:00:49;;;;;;;7.03;2.37;;;26.80;99.90;;;;;;5012681;28;20207;-81
2022/07/13 06:03:14;;;;;;;6.73;2.50;;;27.00;99.90;;;;;;5010410;28;20802;-81
2022/07/13 06:05:40;;;;;;;10.03;2.10;;;27.00;99.90;;;;;;5010868;28;20194;-81
2022/07/13 06:08:06;;;;;;;3.50;2.70;;;26.80;99.90;;;;;;5011829;28;20655;-81
2022/07/13 06:10:31;;;;;;;6.33;2.30;;;26.70;99.90;;;;;;4973305;28;1082994;-81
2022/07/13 06:12:57;;;;;;;3.77;3.00;;;26.70;99.90;;;;;;5012229;28;20434;-82
2022/07/13 06:15:22;;;;;;;3.60;2.43;;;26.80;99.90;;;;;;5011211;28;20214;-81
2022/07/13 06:17:48;;;;;;;7.50;2.50;;;26.90;99.90;;;;;;5011882;28;20193;-82
2022/07/13 06:20:13;;;;;;;2.93;2.20;;;26.90;99.90;;;;;;5010980;28;20213;-82
2022/07/13 06:22:39;;;;;;;3.43;2.07;;;27.00;99.90;;;;;;5013600;28;20544;-81
2022/07/13 06:25:05;;;;;;;4.87;2.73;;;27.20;99.90;;;;;;5010948;28;20186;-81
2022/07/13 06:27:31;;;;;;;4.47;2.50;;;27.60;99.90;;;;;;5016430;28;20201;-82
2022/07/13 06:29:57;;;;;;;6.67;2.10;;;28.40;99.90;;;;;;5011302;28;20793;-83
2022/07/13 06:32:22;;;;;;;2.50;2.30;;;28.60;99.90;;;;;;5011432;28;20182;-82
2022/07/13 06:34:48;;;;;;;3.97;2.13;;;28.60;99.90;;;;;;5007816;28;20496;-82
2022/07/13 06:37:14;;;;;;;5.30;2.57;;;28.90;99.90;;;;;;5011733;28;20179;-84
2022/07/13 06:39:39;;;;;;;3.43;2.30;;;30.10;99.90;;;;;;5010905;28;20207;-83
2022/07/13 06:42:05;;;;;;;4.57;2.50;;;32.80;99.90;;;;;;5012443;28;20181;-83
2022/07/13 06:44:30;;;;;;;6.03;2.40;;;35.70;99.90;;;;;;5015142;28;20183;-83
2022/07/13 06:46:59;;;;;;;2.33;1.70;;;35.90;99.90;;;;;;5016360;28;20698;-83
2022/07/13 06:49:25;;;;;;;2.77;2.53;;;35.00;99.90;;;;;;5016732;28;20209;-83
2022/07/13 06:51:50;;;;;;;4.23;2.83;;;33.80;99.90;;;;;;5015629;28;20827;-83
2022/07/13 06:54:16;;;;;;;2.40;2.20;;;32.70;99.90;;;;;;5012847;28;20497;-83
2022/07/13 06:56:42;;;;;;;2.67;1.93;;;31.60;99.90;;;;;;5030537;28;20175;-83
2022/07/13 06:59:07;;;;;;;3.73;2.80;;;30.90;99.90;;;;;;5012130;28;20179;-83
2022/07/13 07:01:33;;;;;;;2.93;2.37;;;30.40;99.90;;;;;;5012599;28;20183;-82
2022/07/13 07:03:58;;;;;;;2.47;2.27;;;30.00;99.90;;;;;;5013711;28;20182;-82
2022/07/13 07:06:24;;;;;;;3.17;2.30;;;29.60;99.90;;;;;;5015045;28;20266;-84
2022/07/13 07:08:49;;;;;;;3.13;2.20;;;29.40;99.90;;;;;;5013493;28;20210;-84
2022/07/13 07:11:15;;;;;;;3.83;2.60;;;29.20;99.90;;;;;;5014722;28;20218;-84
2022/07/13 07:13:40;;;;;;;5.83;2.53;;;29.20;99.90;;;;;;5012617;28;20556;-83
2022/07/13 07:16:06;;;;;;;5.20;2.27;;;29.20;99.90;;;;;;5016500;28;20198;-84
2022/07/13 07:18:32;;;;;;;2.63;1.87;;;29.30;99.90;;;;;;5011807;28;20559;-82
2022/07/13 07:21:00;;;;;;;4.47;2.40;;;29.20;99.90;;;;;;5014386;28;20206;-82
2022/07/13 07:23:25;;;;;;;2.43;2.23;;;28.90;99.90;;;;;;5016307;28;20179;-81
2022/07/13 07:25:51;;;;;;;3.57;2.63;;;28.60;99.90;;;;;;5016517;28;20436;-81
2022/07/13 07:28:17;;;;;;;2.67;2.10;;;28.20;99.90;;;;;;5015703;28;20190;-82
2022/07/13 07:30:42;;;;;;;6.50;2.33;;;27.90;99.90;;;;;;5016400;28;20449;-81
2022/07/13 07:33:08;;;;;;;6.00;2.90;;;27.70;99.90;;;;;;5016180;28;20678;-81
2022/07/13 07:35:33;;;;;;;4.57;2.43;;;27.40;99.90;;;;;;5017221;28;20198;-81
2022/07/13 07:37:59;;;;;;;4.27;3.20;;;27.30;99.90;;;;;;5017073;28;20202;-81
2022/07/13 07:40:24;;;;;;;3.30;2.43;;;27.30;99.90;;;;;;5018057;28;20286;-81
2022/07/13 07:42:50;;;;;;;7.47;2.47;;;27.70;99.90;;;;;;5018557;28;20557;-81
2022/07/13 07:45:15;;;;;;;5.60;2.50;;;28.30;99.90;;;;;;5014572;28;20187;-81
2022/07/13 07:47:41;;;;;;;3.33;2.37;;;28.80;99.90;;;;;;5015801;28;20183;-81
2022/07/13 07:50:07;;;;;;;7.87;2.87;;;29.20;99.90;;;;;;5011473;28;20231;-82
2022/07/13 07:52:33;;;;;;;2.73;2.27;;;33.20;99.90;;;;;;5014051;28;21518;-82
2022/07/13 07:54:59;;;;;;;4.97;3.03;;;37.00;99.90;;;;;;5013127;28;20466;-82
2022/07/13 07:57:24;;;;;;;4.20;2.00;;;37.50;99.90;;;;;;5016225;28;20187;-82
2022/07/13 07:59:50;;;;;;;5.50;2.23;;;38.50;99.90;;;;;;5017029;28;20214;-82
2022/07/13 08:02:16;;;;;;;9.83;1.70;;;37.40;99.90;;;;;;5015644;28;20179;-82
2022/07/13 08:04:41;;;;;;;7.60;2.13;;;37.30;99.90;;;;;;5009226;28;20179;-82
2022/07/13 08:07:07;;;;;;;4.37;1.97;;;36.80;98.00;;;;;;5018977;28;20670;-82
2022/07/13 08:09:34;;;;;;;3.50;2.10;;;36.40;95.50;;;;;;5015031;28;20260;-82
2022/07/13 08:12:00;;;;;;;2.47;1.90;;;35.40;92.90;;;;;;5016426;28;20433;-82
2022/07/13 08:14:26;;;;;;;3.90;2.10;;;34.60;91.20;;;;;;5014921;28;20461;-82
2022/07/13 08:16:52;;;;;;;5.10;2.30;;;34.00;90.00;;;;;;5008451;28;20433;-82
2022/07/13 08:19:18;;;;;;;4.10;2.70;;;34.50;91.50;;;;;;5012267;28;20193;-82
2022/07/13 08:21:43;;;;;;;3.27;2.40;;;37.10;96.20;;;;;;5012108;28;20422;-83
2022/07/13 08:24:09;;;;;;;5.83;2.00;;;40.00;95.80;;;;;;5014941;28;20186;-82
2022/07/13 08:26:35;;;;;;;2.57;1.73;;;40.10;93.50;;;;;;5016188;28;20183;-82
2022/07/13 08:29:00;;;;;;;5.83;2.00;;;40.00;91.00;;;;;;5016747;28;20233;-83
2022/07/13 08:31:26;;;;;;;8.20;2.07;;;38.90;82.50;;;;;;5017274;28;20222;-84
2022/07/13 08:39:24;;;;;;;5.23;2.20;;;45.50;77.80;;;;;;5013520;28;20456;-83
2022/07/13 08:41:50;;;;;;;2.50;1.63;;;45.30;68.60;;;;;;5016044;28;20445;-83
2022/07/13 08:44:16;;;;;;;3.30;1.90;;;43.70;59.10;;;;;;5013552;28;20418;-83
2022/07/13 08:46:42;;;;;;;2.67;2.23;;;45.30;60.60;;;;;;5011130;28;20187;-83
2022/07/13 08:49:09;;;;;;;4.00;2.03;;;48.00;61.10;;;;;;5015170;28;20186;-83
2022/07/13 08:51:35;;;;;;;3.00;2.10;;;49.90;61.20;;;;;;5014697;28;20439;-83
2022/07/13 08:54:05;;;;;;;2.60;1.60;;;48.50;51.50;;;;;;5016546;28;20442;-83
2022/07/13 08:56:32;;;;;;;7.03;2.00;;;45.90;42.90;;;;;;5016544;28;20442;-83
2022/07/13 08:58:59;;;;;;;3.80;2.03;;;43.50;36.90;;;;;;5015314;28;20500;-83
2022/07/13 09:01:24;;;;;;;6.00;2.00;;;41.80;34.20;;;;;;5013637;28;20449;-83
2022/07/13 09:03:51;;;;;;;8.70;2.40;;;40.40;32.10;;;;;;5018254;28;20525;-84
2022/07/13 09:06:38;;;;;;;3.87;2.37;;;39.30;31.80;;;;;;5015299;28;20175;-83
2022/07/13 09:09:08;;;;;;;4.40;2.43;;;39.30;32.70;;;;;;5014964;28;20472;-83
2022/07/13 09:11:34;;;;;;;6.07;2.63;;;41.40;39.80;;;;;;5013888;28;20450;-83
2022/07/13 09:13:59;;;;;;;3.43;2.40;;;42.50;41.10;;;;;;5014454;28;20451;-83
2022/07/13 09:16:29;;;;;;;2.70;2.20;;;42.40;39.00;;;;;;5013522;28;20469;-83
2022/07/13 09:18:56;;;;;;;4.50;2.73;;;41.70;36.50;;;;;;5015590;28;20605;-83
2022/07/13 09:21:23;;;;;;;4.87;2.00;;;41.30;35.40;;;;;;5016134;28;20938;-83
2022/07/13 09:23:54;;;;;;;3.80;2.87;;;41.50;37.40;;;;;;5013682;28;20442;-83
2022/07/13 09:26:21;;;;;;;2.37;2.13;;;41.60;37.30;;;;;;5009618;28;20515;-82
2022/07/13 09:28:48;;;;;;;6.83;2.80;;;41.30;47.90;;;;;;5013028;28;20441;-82
2022/07/13 09:31:15;;;;;;;5.93;2.27;;;40.80;34.90;;;;;;5017844;28;20457;-81
2022/07/13 09:33:44;;;;;;;2.60;2.20;;;40.00;32.70;;;;;;5026311;28;21441;-82
2022/07/13 09:36:13;;;;;;;3.57;2.77;;;39.10;30.60;;;;;;5011629;28;20466;-82
2022/07/13 09:38:44;;;;;;;10.40;2.30;;;37.90;29.90;;;;;;5013844;28;20836;-82
2022/07/13 09:41:19;;;;;;;7.20;2.80;;;36.90;29.50;;;;;;5014491;28;20528;-82
2022/07/13 09:47:12;;;;;;;10.17;3.33;;;35.40;29.40;;;;;;4988183;28;20556;-81
2022/07/13 09:49:42;;;;;;;8.60;2.80;;;34.60;29.20;;;;;;4984427;28;20462;-81
2022/07/13 09:52:18;;;;;;;15.33;3.03;;;34.10;30.40;;;;;;4988481;28;20444;-81
2022/07/13 09:54:51;;;;;;;5.93;2.70;;;33.70;31.80;;;;;;5008630;28;20468;-81
2022/07/13 09:57:21;;;;;;;4.73;2.77;;;33.30;32.10;;;;;;5013847;28;20468;-81
2022/07/13 09:59:49;;;;;;;4.60;2.73;;;33.10;33.40;;;;;;5007562;28;21061;-82
2022/07/13 10:02:15;;;;;;;9.63;2.60;;;33.00;34.90;;;;;;5009851;28;20441;-82
2022/07/13 10:04:41;;;;;;;3.73;2.33;;;33.00;36.80;;;;;;5012760;28;20465;-82
2022/07/13 10:07:08;;;;;;;4.30;2.90;;;33.10;38.40;;;;;;5006120;28;20470;-82
2022/07/13 10:09:37;;;;;;;4.10;2.90;;;33.10;40.20;;;;;;5011229;28;20230;-82
2022/07/13 10:12:07;;;;;;;3.70;2.47;;;33.10;41.60;;;;;;5010081;28;20430;-81
2022/07/13 10:14:33;;;;;;;8.93;2.23;;;33.30;42.40;;;;;;5008789;28;20539;-81
2022/07/13 10:17:00;;;;;;;2.70;2.50;;;33.90;45.30;;;;;;5011459;28;20426;-81
2022/07/13 10:19:26;;;;;;;4.60;2.80;;;34.90;48.80;;;;;;5010008;28;20199;-82
2022/07/13 10:22:23;;;;;;;3.80;2.30;;;35.30;50.80;;;;;;5012681;28;20768;-82
2022/07/13 10:24:59;;;;;;;4.07;2.30;;;35.60;50.80;;;;;;5003359;28;20435;-82
2022/07/13 10:27:29;;;;;;;3.50;2.17;;;36.50;53.30;;;;;;5009423;28;20430;-82
2022/07/13 10:30:17;;;;;;;4.40;2.20;;;36.80;53.80;;;;;;5031185;28;20465;-82
2022/07/13 10:32:43;;;;;;;3.27;2.00;;;39.10;58.20;;;;;;5006509;28;20843;-82
2022/07/13 10:35:11;;;;;;;7.47;2.40;;;40.10;58.10;;;;;;5015031;28;20462;-82
2022/07/13 10:37:55;;;;;;;3.67;2.13;;;39.90;55.70;;;;;;5013174;28;20605;-82
2022/07/13 10:40:31;;;;;;;3.33;2.50;;;39.70;53.10;;;;;;5013010;28;20450;-82
2022/07/13 10:42:57;;;;;;;5.47;2.40;;;39.80;53.60;;;;;;5014480;28;20454;-82
2022/07/13 10:45:35;;;;;;;4.53;2.40;;;40.30;53.20;;;;;;5013799;28;20492;-82
2022/07/13 10:48:04;;;;;;;4.70;2.40;;;40.00;50.80;;;;;;5013003;28;20273;-82
2022/07/13 10:50:36;;;;;;;5.53;2.33;;;39.50;49.20;;;;;;5008794;28;20469;-82
2022/07/13 10:53:02;;;;;;;8.20;2.10;;;39.00;47.20;;;;;;5014664;28;20452;-81
2022/07/13 10:55:33;;;;;;;4.20;2.07;;;38.40;46.00;;;;;;5014532;28;20457;-82
2022/07/13 10:58:00;;;;;;;3.77;2.17;;;38.40;45.70;;;;;;5010820;28;20434;-82
2022/07/13 11:00:48;;;;;;;2.33;1.80;;;38.50;45.70;;;;;;5011340;28;20473;-82
2022/07/13 11:03:43;;;;;;;5.90;2.13;;;38.90;47.20;;;;;;5023841;28;20433;-81
2022/07/13 11:06:09;;;;;;;4.93;1.60;;;39.70;49.00;;;;;;5011183;28;20445;-82
2022/07/13 11:08:35;;;;;;;3.00;1.80;;;40.80;51.10;;;;;;5011528;28;20915;-82
2022/07/13 11:11:11;;;;;;;3.50;1.87;;;41.80;52.20;;;;;;5009466;28;20230;-83
2022/07/13 11:13:37;;;;;;;2.83;1.47;;;42.70;51.70;;;;;;5011251;28;20444;-82
2022/07/13 11:16:05;;;;;;;2.00;1.40;;;41.70;46.50;;;;;;5009746;28;20496;-82
2022/07/13 11:18:33;;;;;;;2.13;1.60;;;40.90;43.70;;;;;;5011071;28;20438;-82
2022/07/13 11:21:19;;;;;;;5.80;1.67;;;40.30;42.00;;;;;;5012137;28;20970;-82
2022/07/13 11:26:48;;;;;;;4.43;1.50;;;39.30;39.50;;;;;;5007462;28;20499;-81
2022/07/13 11:29:44;;;;;;;4.30;1.50;;;39.30;40.20;;;;;;5010564;28;20508;-82
2022/07/13 11:32:12;;;;;;;3.03;1.60;;;39.90;42.80;;;;;;5006167;28;20480;-82
2022/07/13 11:34:41;;;;;;;2.73;1.43;;;40.70;43.80;;;;;;5013779;28;20464;-82
2022/07/13 11:37:08;;;;;;;5.70;1.73;;;40.90;44.00;;;;;;5014771;28;20436;-81
2022/07/13 11:39:36;;;;;;;5.83;1.57;;;40.70;43.30;;;;;;5012719;28;20471;-81
2022/07/13 11:42:05;;;;;;;2.57;1.93;;;40.30;42.10;;;;;;5012226;28;20425;-81
2022/07/13 11:44:31;;;;;;;6.50;1.93;;;39.90;40.60;;;;;;5011692;28;20441;-81
2022/07/13 11:47:01;;;;;;;1.93;1.30;;;39.60;39.70;;;;;;5009643;28;20436;-81
2022/07/13 11:49:27;;;;;;;4.53;2.17;;;39.40;39.60;;;;;;5010148;28;20473;-81
2022/07/13 11:51:53;;;;;;;3.30;1.80;;;40.00;42.10;;;;;;5012867;28;20442;-82
2022/07/13 11:54:20;;;;;;;5.03;1.40;;;40.50;43.10;;;;;;5014155;28;20437;-82
2022/07/13 11:56:57;;;;;;;8.07;1.80;;;40.80;43.80;;;;;;5015569;28;20190;-82
2022/07/13 11:59:35;;;;;;;3.43;1.60;;;40.70;42.40;;;;;;5013959;28;20434;-81
2022/07/13 12:02:07;;;;;;;3.53;1.47;;;41.00;42.70;;;;;;5008033;28;20422;-82
2022/07/13 12:04:32;;;;;;;4.60;1.47;;;41.00;43.20;;;;;;5010581;28;20528;-81
2022/07/13 12:07:30;;;;;;;3.10;1.53;;;40.90;42.00;;;;;;5014046;28;20584;-81
2022/07/13 12:10:01;;;;;;;5.60;1.40;;;41.00;42.00;;;;;;5006823;28;20685;-82
2022/07/13 12:12:37;;;;;;;3.63;1.50;;;40.80;41.50;;;;;;5006941;28;20439;-82
2022/07/13 12:15:04;;;;;;;2.23;1.70;;;41.60;43.10;;;;;;5010355;28;20465;-82
2022/07/13 12:17:40;;;;;;;3.17;1.50;;;42.70;44.10;;;;;;5009178;28;20524;-82
2022/07/13 12:20:20;;;;;;;3.73;1.37;;;42.60;43.00;;;;;;5014660;28;20433;-82
2022/07/13 12:22:53;;;;;;;2.63;1.20;;;42.40;41.70;;;;;;5009671;28;20483;-81
2022/07/13 12:25:39;;;;;;;3.03;1.40;;;41.80;40.70;;;;;;5010727;28;20445;-81
2022/07/13 12:28:08;;;;;;;3.10;1.17;;;41.00;37.20;;;;;;5010676;28;20434;-81
2022/07/13 12:30:37;;;;;;;1.77;1.10;;;40.80;36.40;;;;;;5011845;28;21010;-81
2022/07/13 12:33:05;;;;;;;2.77;1.57;;;41.00;38.00;;;;;;5013205;28;20442;-81
2022/07/13 12:35:41;;;;;;;6.00;1.63;;;40.90;37.50;;;;;;5012311;28;20525;-81
2022/07/13 12:38:09;;;;;;;2.70;1.63;;;41.00;38.00;;;;;;5027013;28;20528;-81
2022/07/13 12:40:48;;;;;;;3.90;1.60;;;40.60;37.20;;;;;;5003084;28;20463;-81
2022/07/13 12:43:18;;;;;;;4.10;1.87;;;40.10;35.00;;;;;;5011150;28;20437;-82
2022/07/13 12:45:49;;;;;;;4.40;1.90;;;40.40;36.70;;;;;;5026372;28;20461;-82
2022/07/13 12:48:16;;;;;;;7.93;1.70;;;40.10;36.60;;;;;;5008854;28;21857;-81
2022/07/13 12:50:53;;;;;;;2.43;1.70;;;39.60;35.70;;;;;;5009807;28;20458;-81
2022/07/13 12:53:18;;;;;;;2.73;1.50;;;39.30;35.80;;;;;;5009521;28;20445;-81
2022/07/13 12:55:54;;;;;;;3.47;1.80;;;39.20;36.60;;;;;;5010868;28;20469;-81
2022/07/13 12:58:39;;;;;;;4.63;2.07;;;39.20;36.30;;;;;;4994801;28;20655;-80